<?xml version="1.0" encoding="UTF-8" standalone="no" ?> 
<gpx xmlns="http://www.topografix.com/GPX/1/1" xmlns:gpxtpx="http://www.garmin.com/xmlschemas/TrackPointExtension/v1" creator="OruxMaps v.7.4.22" version="1.1" xmlns:xsi="http://www.w3.org/2001/XMLSchema-instance" xsi:schemaLocation="http://www.topografix.com/GPX/1/1 http://www.topografix.com/GPX/1/1/gpx.xsd"> 
<metadata>
 <name>Perkova kočica na Legarju (Jurij_Šoba, 30.01.2026)</name> <link href="http://razmere.e-gora.si"><text>France Sevsek - razmereform.php</text></link>
 <time>2026-01-30T08:46:21Z</time><bounds maxlat="46.4172133" maxlon="14.5836033" minlat="46.4131767" minlon="14.5737750"/> 
</metadata>
 <wpt lat="46.4172133" lon="14.5737933"> <ele>1299.48</ele> <time>2026-01-30T08:46:21Z</time> <name><![CDATA[0002366]]></name> <sym>Waypoint</sym> <type>Začetna točka</type> <extensions> <om:oruxmapsextensions xmlns:om="http://www.oruxmaps.com/oruxmapsextensions/1/0"> <om:ext type="ICON" subtype="0">38</om:ext> </om:oruxmapsextensions> </extensions> </wpt>
 <wpt lat="46.4171467" lon="14.5738083"> <ele>1334.36</ele> <time>2026-01-30T13:16:53Z</time> <name><![CDATA[0002367]]></name> <desc><![CDATA[<p><br /><h3>Ime: Segment: 1</h3><br />Čas začetka: 09:46 30. jan. 2026<br/>Čas zaključka: 14:14 30. jan. 2026<br/>Razdalja: 5,1km (04:27)<br/>Čas gibanja: 01:36<br/>Povp. hitrost: 1,14 km/h<br/>Povp. hit. gib.: 3,1 km/h<br/>Max. hitrost: 6,07 km/h<br/>Min. višina: 1299 m<br/>Max. višina: 1543 m<br/>Hitrost dviga: 137,3 m/h<br/>Hitrost spusta: −114,6 m/h<br/>Prid. višine: 298 m<br/>Izguba višine: -261 m<br/>Čas dviga: 02:10<br/>Čas spusta: 02:16<br/></p>]]></desc> <sym>Waypoint</sym> <type>Cilj</type> <extensions> <om:oruxmapsextensions xmlns:om="http://www.oruxmaps.com/oruxmapsextensions/1/0"> <om:ext type="ICON" subtype="0">15</om:ext> </om:oruxmapsextensions> </extensions> </wpt>
 <trk>
 <name>Perkova kočica na Legarju (Jurij_Šoba, 30.01.2026)</name> <desc><![CDATA[<p>Čas začetka: 09:46 30. jan. 2026<br/>Čas zaključka: 14:14 30. jan. 2026<br/>Razdalja: 5,1 km (04:27)<br/>Čas gibanja: 01:36<br/>Povp. hitrost: 1,14 km/h<br/>Povp. hit. gib.: 3,18 km/h<br/>Max. hitrost: 6,07 km/h<br/>Min. višina: 1299 m<br/>Max. višina: 1543 m<br/>Hitrost dviga: 143,3 m/h<br/>Hitrost spusta: −100,2 m/h<br/>Prid. višine: 273 m<br/>Izguba višine: -246 m<br/>Čas dviga: 01:54<br/>Čas spusta: 02:27<br/></p><hr align="center" width="480" style="height: 2px; width: 517px"/>]]></desc> <type>Nedefinirano</type> <extensions> <om:oruxmapsextensions xmlns:om="http://www.oruxmaps.com/oruxmapsextensions/1/0"> <om:ext type="TYPE" subtype="0">0</om:ext> <om:ext type="DIFFICULTY">0</om:ext> </om:oruxmapsextensions> </extensions> <trkseg>
 <trkpt lat="46.4172133" lon="14.5737933"> <ele>1299.48</ele> <time>2026-01-30T08:46:22Z</time> </trkpt>
 <trkpt lat="46.4170400" lon="14.5738717"> <ele>1316.58</ele> <time>2026-01-30T08:52:04Z</time> </trkpt>
 <trkpt lat="46.4168550" lon="14.5738400"> <ele>1319.48</ele> <time>2026-01-30T08:52:43Z</time> </trkpt>
 <trkpt lat="46.4166767" lon="14.5739033"> <ele>1320.69</ele> <time>2026-01-30T08:53:10Z</time> </trkpt>
 <trkpt lat="46.4164967" lon="14.5739750"> <ele>1323.55</ele> <time>2026-01-30T08:53:45Z</time> </trkpt>
 <trkpt lat="46.4163500" lon="14.5741317"> <ele>1327.26</ele> <time>2026-01-30T08:54:30Z</time> </trkpt>
 <trkpt lat="46.4163083" lon="14.5744200"> <ele>1330.85</ele> <time>2026-01-30T08:55:06Z</time> </trkpt>
 <trkpt lat="46.4162267" lon="14.5746533"> <ele>1333.14</ele> <time>2026-01-30T08:55:41Z</time> </trkpt>
 <trkpt lat="46.4161583" lon="14.5748983"> <ele>1334.52</ele> <time>2026-01-30T08:56:22Z</time> </trkpt>
 <trkpt lat="46.4160717" lon="14.5751417"> <ele>1336.26</ele> <time>2026-01-30T08:56:55Z</time> </trkpt>
 <trkpt lat="46.4159633" lon="14.5753617"> <ele>1339.30</ele> <time>2026-01-30T08:57:29Z</time> </trkpt>
 <trkpt lat="46.4158633" lon="14.5755867"> <ele>1342.38</ele> <time>2026-01-30T08:58:17Z</time> </trkpt>
 <trkpt lat="46.4157817" lon="14.5758300"> <ele>1345.14</ele> <time>2026-01-30T08:58:56Z</time> </trkpt>
 <trkpt lat="46.4156100" lon="14.5759333"> <ele>1351.59</ele> <time>2026-01-30T08:59:41Z</time> </trkpt>
 <trkpt lat="46.4154500" lon="14.5760567"> <ele>1354.69</ele> <time>2026-01-30T09:00:18Z</time> </trkpt>
 <trkpt lat="46.4152833" lon="14.5761550"> <ele>1356.93</ele> <time>2026-01-30T09:00:46Z</time> </trkpt>
 <trkpt lat="46.4151083" lon="14.5762333"> <ele>1360.77</ele> <time>2026-01-30T09:01:24Z</time> </trkpt>
 <trkpt lat="46.4149083" lon="14.5762817"> <ele>1364.49</ele> <time>2026-01-30T09:02:00Z</time> </trkpt>
 <trkpt lat="46.4147283" lon="14.5762617"> <ele>1367.01</ele> <time>2026-01-30T09:02:31Z</time> </trkpt>
 <trkpt lat="46.4145450" lon="14.5762517"> <ele>1368.19</ele> <time>2026-01-30T09:02:59Z</time> </trkpt>
 <trkpt lat="46.4143933" lon="14.5764083"> <ele>1370.82</ele> <time>2026-01-30T09:03:37Z</time> </trkpt>
 <trkpt lat="46.4142333" lon="14.5765433"> <ele>1370.56</ele> <time>2026-01-30T09:04:12Z</time> </trkpt>
 <trkpt lat="46.4144083" lon="14.5766167"> <ele>1371.51</ele> <time>2026-01-30T09:05:12Z</time> </trkpt>
 <trkpt lat="46.4145900" lon="14.5765700"> <ele>1371.79</ele> <time>2026-01-30T09:05:47Z</time> </trkpt>
 <trkpt lat="46.4147483" lon="14.5767100"> <ele>1376.69</ele> <time>2026-01-30T09:06:43Z</time> </trkpt>
 <trkpt lat="46.4149200" lon="14.5767933"> <ele>1376.85</ele> <time>2026-01-30T09:07:21Z</time> </trkpt>
 <trkpt lat="46.4151433" lon="14.5768333"> <ele>1378.72</ele> <time>2026-01-30T09:09:00Z</time> </trkpt>
 <trkpt lat="46.4153367" lon="14.5768933"> <ele>1385.00</ele> <time>2026-01-30T09:09:40Z</time> </trkpt>
 <trkpt lat="46.4155333" lon="14.5769767"> <ele>1388.45</ele> <time>2026-01-30T09:10:31Z</time> </trkpt>
 <trkpt lat="46.4157083" lon="14.5770550"> <ele>1393.16</ele> <time>2026-01-30T09:11:08Z</time> </trkpt>
 <trkpt lat="46.4158650" lon="14.5771833"> <ele>1392.58</ele> <time>2026-01-30T09:11:38Z</time> </trkpt>
 <trkpt lat="46.4160383" lon="14.5772733"> <ele>1393.72</ele> <time>2026-01-30T09:12:21Z</time> </trkpt>
 <trkpt lat="46.4161817" lon="14.5771117"> <ele>1393.26</ele> <time>2026-01-30T09:12:53Z</time> </trkpt>
 <trkpt lat="46.4163583" lon="14.5769767"> <ele>1397.83</ele> <time>2026-01-30T09:13:46Z</time> </trkpt>
 <trkpt lat="46.4165483" lon="14.5768633"> <ele>1400.06</ele> <time>2026-01-30T09:14:33Z</time> </trkpt>
 <trkpt lat="46.4166983" lon="14.5767017"> <ele>1401.81</ele> <time>2026-01-30T09:15:21Z</time> </trkpt>
 <trkpt lat="46.4168133" lon="14.5764950"> <ele>1400.63</ele> <time>2026-01-30T09:16:02Z</time> </trkpt>
 <trkpt lat="46.4169833" lon="14.5763783"> <ele>1400.99</ele> <time>2026-01-30T09:16:56Z</time> </trkpt>
 <trkpt lat="46.4171600" lon="14.5763200"> <ele>1401.95</ele> <time>2026-01-30T09:17:37Z</time> </trkpt>
 <trkpt lat="46.4170667" lon="14.5765433"> <ele>1407.29</ele> <time>2026-01-30T09:18:58Z</time> </trkpt>
 <trkpt lat="46.4169267" lon="14.5767117"> <ele>1408.97</ele> <time>2026-01-30T09:19:45Z</time> </trkpt>
 <trkpt lat="46.4168733" lon="14.5769700"> <ele>1414.34</ele> <time>2026-01-30T09:20:38Z</time> </trkpt>
 <trkpt lat="46.4168317" lon="14.5772283"> <ele>1415.85</ele> <time>2026-01-30T09:21:18Z</time> </trkpt>
 <trkpt lat="46.4167833" lon="14.5774900"> <ele>1420.31</ele> <time>2026-01-30T09:21:56Z</time> </trkpt>
 <trkpt lat="46.4166600" lon="14.5777733"> <ele>1422.64</ele> <time>2026-01-30T09:23:09Z</time> </trkpt>
 <trkpt lat="46.4164800" lon="14.5778300"> <ele>1423.14</ele> <time>2026-01-30T09:23:49Z</time> </trkpt>
 <trkpt lat="46.4162983" lon="14.5779900"> <ele>1418.14</ele> <time>2026-01-30T09:24:49Z</time> </trkpt>
 <trkpt lat="46.4161617" lon="14.5781933"> <ele>1418.57</ele> <time>2026-01-30T09:25:27Z</time> </trkpt>
 <trkpt lat="46.4160217" lon="14.5783583"> <ele>1423.89</ele> <time>2026-01-30T09:26:18Z</time> </trkpt>
 <trkpt lat="46.4158000" lon="14.5783150"> <ele>1423.78</ele> <time>2026-01-30T09:27:20Z</time> </trkpt>
 <trkpt lat="46.4156383" lon="14.5781933"> <ele>1424.31</ele> <time>2026-01-30T09:27:59Z</time> </trkpt>
 <trkpt lat="46.4154700" lon="14.5780883"> <ele>1429.28</ele> <time>2026-01-30T09:28:44Z</time> </trkpt>
 <trkpt lat="46.4152883" lon="14.5781100"> <ele>1436.21</ele> <time>2026-01-30T09:29:31Z</time> </trkpt>
 <trkpt lat="46.4151567" lon="14.5783967"> <ele>1440.88</ele> <time>2026-01-30T09:31:12Z</time> </trkpt>
 <trkpt lat="46.4150500" lon="14.5786117"> <ele>1442.06</ele> <time>2026-01-30T09:31:44Z</time> </trkpt>
 <trkpt lat="46.4149400" lon="14.5788183"> <ele>1445.60</ele> <time>2026-01-30T09:32:24Z</time> </trkpt>
 <trkpt lat="46.4148700" lon="14.5790750"> <ele>1446.02</ele> <time>2026-01-30T09:33:07Z</time> </trkpt>
 <trkpt lat="46.4148633" lon="14.5793417"> <ele>1447.22</ele> <time>2026-01-30T09:34:26Z</time> </trkpt>
 <trkpt lat="46.4147617" lon="14.5795600"> <ele>1446.83</ele> <time>2026-01-30T09:35:12Z</time> </trkpt>
 <trkpt lat="46.4146133" lon="14.5797100"> <ele>1447.35</ele> <time>2026-01-30T09:35:44Z</time> </trkpt>
 <trkpt lat="46.4145033" lon="14.5799317"> <ele>1450.14</ele> <time>2026-01-30T09:36:21Z</time> </trkpt>
 <trkpt lat="46.4144000" lon="14.5801500"> <ele>1453.45</ele> <time>2026-01-30T09:36:54Z</time> </trkpt>
 <trkpt lat="46.4143083" lon="14.5803783"> <ele>1451.76</ele> <time>2026-01-30T09:37:38Z</time> </trkpt>
 <trkpt lat="46.4142033" lon="14.5805983"> <ele>1450.52</ele> <time>2026-01-30T09:41:02Z</time> </trkpt>
 <trkpt lat="46.4140850" lon="14.5808017"> <ele>1450.83</ele> <time>2026-01-30T09:41:31Z</time> </trkpt>
 <trkpt lat="46.4139667" lon="14.5810117"> <ele>1450.03</ele> <time>2026-01-30T09:42:08Z</time> </trkpt>
 <trkpt lat="46.4138583" lon="14.5812200"> <ele>1452.65</ele> <time>2026-01-30T09:42:36Z</time> </trkpt>
 <trkpt lat="46.4137283" lon="14.5814133"> <ele>1451.25</ele> <time>2026-01-30T09:43:04Z</time> </trkpt>
 <trkpt lat="46.4135900" lon="14.5815833"> <ele>1453.24</ele> <time>2026-01-30T09:43:33Z</time> </trkpt>
 <trkpt lat="46.4134550" lon="14.5817617"> <ele>1453.80</ele> <time>2026-01-30T09:43:59Z</time> </trkpt>
 <trkpt lat="46.4133867" lon="14.5820067"> <ele>1451.81</ele> <time>2026-01-30T09:44:31Z</time> </trkpt>
 <trkpt lat="46.4133017" lon="14.5822433"> <ele>1454.49</ele> <time>2026-01-30T09:45:00Z</time> </trkpt>
 <trkpt lat="46.4132417" lon="14.5824917"> <ele>1458.44</ele> <time>2026-01-30T09:45:34Z</time> </trkpt>
 <trkpt lat="46.4131867" lon="14.5827550"> <ele>1463.48</ele> <time>2026-01-30T09:46:08Z</time> </trkpt>
 <trkpt lat="46.4132250" lon="14.5830150"> <ele>1463.22</ele> <time>2026-01-30T09:47:06Z</time> </trkpt>
 <trkpt lat="46.4132350" lon="14.5832817"> <ele>1464.32</ele> <time>2026-01-30T09:47:40Z</time> </trkpt>
 <trkpt lat="46.4131767" lon="14.5835317"> <ele>1465.79</ele> <time>2026-01-30T09:48:26Z</time> </trkpt>
 <trkpt lat="46.4133533" lon="14.5836033"> <ele>1463.82</ele> <time>2026-01-30T09:49:06Z</time> </trkpt>
 <trkpt lat="46.4132767" lon="14.5833433"> <ele>1460.85</ele> <time>2026-01-30T09:54:44Z</time> </trkpt>
 <trkpt lat="46.4134400" lon="14.5832317"> <ele>1459.72</ele> <time>2026-01-30T09:55:35Z</time> </trkpt>
 <trkpt lat="46.4135733" lon="14.5830550"> <ele>1459.55</ele> <time>2026-01-30T09:56:44Z</time> </trkpt>
 <trkpt lat="46.4136600" lon="14.5828217"> <ele>1456.54</ele> <time>2026-01-30T09:57:22Z</time> </trkpt>
 <trkpt lat="46.4137200" lon="14.5825733"> <ele>1454.52</ele> <time>2026-01-30T09:58:00Z</time> </trkpt>
 <trkpt lat="46.4137733" lon="14.5823167"> <ele>1454.63</ele> <time>2026-01-30T09:58:43Z</time> </trkpt>
 <trkpt lat="46.4139000" lon="14.5821283"> <ele>1456.95</ele> <time>2026-01-30T09:59:26Z</time> </trkpt>
 <trkpt lat="46.4140583" lon="14.5820017"> <ele>1455.32</ele> <time>2026-01-30T09:59:57Z</time> </trkpt>
 <trkpt lat="46.4142267" lon="14.5818933"> <ele>1458.65</ele> <time>2026-01-30T10:00:35Z</time> </trkpt>
 <trkpt lat="46.4143500" lon="14.5816167"> <ele>1461.52</ele> <time>2026-01-30T10:01:26Z</time> </trkpt>
 <trkpt lat="46.4143917" lon="14.5813617"> <ele>1467.03</ele> <time>2026-01-30T10:02:12Z</time> </trkpt>
 <trkpt lat="46.4145350" lon="14.5812017"> <ele>1475.53</ele> <time>2026-01-30T10:02:48Z</time> </trkpt>
 <trkpt lat="46.4147000" lon="14.5810850"> <ele>1478.02</ele> <time>2026-01-30T10:03:33Z</time> </trkpt>
 <trkpt lat="46.4148717" lon="14.5809950"> <ele>1480.61</ele> <time>2026-01-30T10:04:14Z</time> </trkpt>
 <trkpt lat="46.4150133" lon="14.5807400"> <ele>1484.11</ele> <time>2026-01-30T10:05:12Z</time> </trkpt>
 <trkpt lat="46.4151317" lon="14.5805333"> <ele>1483.60</ele> <time>2026-01-30T10:05:56Z</time> </trkpt>
 <trkpt lat="46.4152667" lon="14.5803533"> <ele>1479.55</ele> <time>2026-01-30T10:06:45Z</time> </trkpt>
 <trkpt lat="46.4154467" lon="14.5803633"> <ele>1479.96</ele> <time>2026-01-30T10:07:30Z</time> </trkpt>
 <trkpt lat="46.4156300" lon="14.5803583"> <ele>1484.86</ele> <time>2026-01-30T10:08:31Z</time> </trkpt>
 <trkpt lat="46.4154683" lon="14.5805667"> <ele>1488.80</ele> <time>2026-01-30T10:10:20Z</time> </trkpt>
 <trkpt lat="46.4153733" lon="14.5807883"> <ele>1491.86</ele> <time>2026-01-30T10:11:04Z</time> </trkpt>
 <trkpt lat="46.4153133" lon="14.5810383"> <ele>1494.25</ele> <time>2026-01-30T10:11:55Z</time> </trkpt>
 <trkpt lat="46.4154800" lon="14.5809283"> <ele>1499.12</ele> <time>2026-01-30T10:12:52Z</time> </trkpt>
 <trkpt lat="46.4156417" lon="14.5808100"> <ele>1498.45</ele> <time>2026-01-30T10:13:43Z</time> </trkpt>
 <trkpt lat="46.4158333" lon="14.5808150"> <ele>1502.07</ele> <time>2026-01-30T10:14:33Z</time> </trkpt>
 <trkpt lat="46.4160133" lon="14.5808250"> <ele>1504.49</ele> <time>2026-01-30T10:18:49Z</time> </trkpt>
 <trkpt lat="46.4158583" lon="14.5809800"> <ele>1500.49</ele> <time>2026-01-30T10:21:32Z</time> </trkpt>
 <trkpt lat="46.4156933" lon="14.5811650"> <ele>1504.39</ele> <time>2026-01-30T10:22:29Z</time> </trkpt>
 <trkpt lat="46.4157017" lon="14.5814283"> <ele>1508.88</ele> <time>2026-01-30T10:23:19Z</time> </trkpt>
 <trkpt lat="46.4156333" lon="14.5816700"> <ele>1510.67</ele> <time>2026-01-30T10:24:06Z</time> </trkpt>
 <trkpt lat="46.4155067" lon="14.5818567"> <ele>1510.23</ele> <time>2026-01-30T10:25:27Z</time> </trkpt>
 <trkpt lat="46.4154050" lon="14.5820817"> <ele>1512.90</ele> <time>2026-01-30T10:26:12Z</time> </trkpt>
 <trkpt lat="46.4152517" lon="14.5822283"> <ele>1516.15</ele> <time>2026-01-30T10:26:57Z</time> </trkpt>
 <trkpt lat="46.4153850" lon="14.5824367"> <ele>1517.11</ele> <time>2026-01-30T10:27:40Z</time> </trkpt>
 <trkpt lat="46.4155150" lon="14.5822517"> <ele>1518.59</ele> <time>2026-01-30T10:28:28Z</time> </trkpt>
 <trkpt lat="46.4156600" lon="14.5820967"> <ele>1519.88</ele> <time>2026-01-30T10:29:20Z</time> </trkpt>
 <trkpt lat="46.4158100" lon="14.5819433"> <ele>1520.86</ele> <time>2026-01-30T10:30:13Z</time> </trkpt>
 <trkpt lat="46.4159883" lon="14.5818933"> <ele>1532.15</ele> <time>2026-01-30T10:31:05Z</time> </trkpt>
 <trkpt lat="46.4161683" lon="14.5818583"> <ele>1532.94</ele> <time>2026-01-30T10:31:56Z</time> </trkpt>
 <trkpt lat="46.4163150" lon="14.5820300"> <ele>1538.43</ele> <time>2026-01-30T10:32:48Z</time> </trkpt>
 <trkpt lat="46.4162983" lon="14.5822900"> <ele>1540.89</ele> <time>2026-01-30T10:44:50Z</time> </trkpt>
 <trkpt lat="46.4163667" lon="14.5825383"> <ele>1539.78</ele> <time>2026-01-30T10:45:39Z</time> </trkpt>
 <trkpt lat="46.4164817" lon="14.5827583"> <ele>1540.52</ele> <time>2026-01-30T10:47:21Z</time> </trkpt>
 <trkpt lat="46.4166250" lon="14.5830117"> <ele>1543.69</ele> <time>2026-01-30T10:49:08Z</time> </trkpt>
 <trkpt lat="46.4166700" lon="14.5832717"> <ele>1527.02</ele> <time>2026-01-30T10:55:48Z</time> </trkpt>
 <trkpt lat="46.4166383" lon="14.5830133"> <ele>1527.18</ele> <time>2026-01-30T11:36:06Z</time> </trkpt>
 <trkpt lat="46.4165817" lon="14.5827650"> <ele>1536.70</ele> <time>2026-01-30T11:36:45Z</time> </trkpt>
 <trkpt lat="46.4166917" lon="14.5825167"> <ele>1541.86</ele> <time>2026-01-30T11:37:45Z</time> </trkpt>
 <trkpt lat="46.4164750" lon="14.5824317"> <ele>1539.11</ele> <time>2026-01-30T11:39:30Z</time> </trkpt>
 <trkpt lat="46.4165800" lon="14.5822117"> <ele>1530.60</ele> <time>2026-01-30T11:43:50Z</time> </trkpt>
 <trkpt lat="46.4164150" lon="14.5821033"> <ele>1533.99</ele> <time>2026-01-30T11:44:49Z</time> </trkpt>
 <trkpt lat="46.4163067" lon="14.5818933"> <ele>1536.53</ele> <time>2026-01-30T11:45:36Z</time> </trkpt>
 <trkpt lat="46.4161300" lon="14.5818317"> <ele>1534.57</ele> <time>2026-01-30T11:46:12Z</time> </trkpt>
 <trkpt lat="46.4159583" lon="14.5819233"> <ele>1521.16</ele> <time>2026-01-30T11:59:39Z</time> </trkpt>
 <trkpt lat="46.4157767" lon="14.5819817"> <ele>1516.42</ele> <time>2026-01-30T12:00:02Z</time> </trkpt>
 <trkpt lat="46.4156317" lon="14.5821500"> <ele>1515.87</ele> <time>2026-01-30T12:00:22Z</time> </trkpt>
 <trkpt lat="46.4154650" lon="14.5822817"> <ele>1519.05</ele> <time>2026-01-30T12:01:12Z</time> </trkpt>
 <trkpt lat="46.4152933" lon="14.5823717"> <ele>1521.57</ele> <time>2026-01-30T12:02:13Z</time> </trkpt>
 <trkpt lat="46.4153583" lon="14.5821183"> <ele>1522.27</ele> <time>2026-01-30T12:02:45Z</time> </trkpt>
 <trkpt lat="46.4155100" lon="14.5819617"> <ele>1520.82</ele> <time>2026-01-30T12:03:18Z</time> </trkpt>
 <trkpt lat="46.4156033" lon="14.5817267"> <ele>1518.37</ele> <time>2026-01-30T12:03:49Z</time> </trkpt>
 <trkpt lat="46.4157350" lon="14.5815283"> <ele>1516.82</ele> <time>2026-01-30T12:04:10Z</time> </trkpt>
 <trkpt lat="46.4157083" lon="14.5812550"> <ele>1521.32</ele> <time>2026-01-30T12:05:58Z</time> </trkpt>
 <trkpt lat="46.4158317" lon="14.5810567"> <ele>1514.73</ele> <time>2026-01-30T12:06:19Z</time> </trkpt>
 <trkpt lat="46.4159917" lon="14.5809317"> <ele>1508.12</ele> <time>2026-01-30T12:06:46Z</time> </trkpt>
 <trkpt lat="46.4158650" lon="14.5807317"> <ele>1508.73</ele> <time>2026-01-30T12:07:03Z</time> </trkpt>
 <trkpt lat="46.4156850" lon="14.5807933"> <ele>1502.51</ele> <time>2026-01-30T12:07:20Z</time> </trkpt>
 <trkpt lat="46.4155033" lon="14.5808200"> <ele>1504.01</ele> <time>2026-01-30T12:08:33Z</time> </trkpt>
 <trkpt lat="46.4153617" lon="14.5810033"> <ele>1500.58</ele> <time>2026-01-30T12:08:49Z</time> </trkpt>
 <trkpt lat="46.4153900" lon="14.5807333"> <ele>1502.08</ele> <time>2026-01-30T12:09:17Z</time> </trkpt>
 <trkpt lat="46.4154783" lon="14.5804983"> <ele>1501.29</ele> <time>2026-01-30T12:09:36Z</time> </trkpt>
 <trkpt lat="46.4156467" lon="14.5803950"> <ele>1497.82</ele> <time>2026-01-30T12:09:57Z</time> </trkpt>
 <trkpt lat="46.4154667" lon="14.5803050"> <ele>1492.99</ele> <time>2026-01-30T12:11:59Z</time> </trkpt>
 <trkpt lat="46.4152783" lon="14.5803167"> <ele>1485.25</ele> <time>2026-01-30T12:13:15Z</time> </trkpt>
 <trkpt lat="46.4151650" lon="14.5805250"> <ele>1481.09</ele> <time>2026-01-30T12:13:31Z</time> </trkpt>
 <trkpt lat="46.4150200" lon="14.5806967"> <ele>1481.31</ele> <time>2026-01-30T12:14:00Z</time> </trkpt>
 <trkpt lat="46.4148850" lon="14.5808733"> <ele>1480.64</ele> <time>2026-01-30T12:14:41Z</time> </trkpt>
 <trkpt lat="46.4147283" lon="14.5810317"> <ele>1477.68</ele> <time>2026-01-30T12:14:57Z</time> </trkpt>
 <trkpt lat="46.4145450" lon="14.5810967"> <ele>1477.16</ele> <time>2026-01-30T12:15:56Z</time> </trkpt>
 <trkpt lat="46.4144150" lon="14.5812933"> <ele>1469.92</ele> <time>2026-01-30T12:16:10Z</time> </trkpt>
 <trkpt lat="46.4143450" lon="14.5815433"> <ele>1467.71</ele> <time>2026-01-30T12:16:46Z</time> </trkpt>
 <trkpt lat="46.4142233" lon="14.5817567"> <ele>1466.75</ele> <time>2026-01-30T12:17:03Z</time> </trkpt>
 <trkpt lat="46.4140517" lon="14.5818617"> <ele>1465.79</ele> <time>2026-01-30T12:17:21Z</time> </trkpt>
 <trkpt lat="46.4138950" lon="14.5820017"> <ele>1464.07</ele> <time>2026-01-30T12:17:36Z</time> </trkpt>
 <trkpt lat="46.4137850" lon="14.5822167"> <ele>1461.21</ele> <time>2026-01-30T12:17:51Z</time> </trkpt>
 <trkpt lat="46.4137367" lon="14.5824717"> <ele>1455.77</ele> <time>2026-01-30T12:18:08Z</time> </trkpt>
 <trkpt lat="46.4137200" lon="14.5827467"> <ele>1445.96</ele> <time>2026-01-30T12:18:23Z</time> </trkpt>
 <trkpt lat="46.4136117" lon="14.5829633"> <ele>1443.71</ele> <time>2026-01-30T12:18:37Z</time> </trkpt>
 <trkpt lat="46.4134650" lon="14.5831433"> <ele>1446.84</ele> <time>2026-01-30T12:18:55Z</time> </trkpt>
 <trkpt lat="46.4133767" lon="14.5833783"> <ele>1447.00</ele> <time>2026-01-30T12:19:14Z</time> </trkpt>
 <trkpt lat="46.4133833" lon="14.5831100"> <ele>1452.36</ele> <time>2026-01-30T12:24:45Z</time> </trkpt>
 <trkpt lat="46.4133933" lon="14.5828383"> <ele>1448.56</ele> <time>2026-01-30T12:25:11Z</time> </trkpt>
 <trkpt lat="46.4133917" lon="14.5825733"> <ele>1447.10</ele> <time>2026-01-30T12:25:28Z</time> </trkpt>
 <trkpt lat="46.4133350" lon="14.5823200"> <ele>1449.06</ele> <time>2026-01-30T12:25:55Z</time> </trkpt>
 <trkpt lat="46.4133633" lon="14.5820600"> <ele>1447.15</ele> <time>2026-01-30T12:26:20Z</time> </trkpt>
 <trkpt lat="46.4134617" lon="14.5818383"> <ele>1444.10</ele> <time>2026-01-30T12:26:42Z</time> </trkpt>
 <trkpt lat="46.4135917" lon="14.5816450"> <ele>1439.29</ele> <time>2026-01-30T12:27:00Z</time> </trkpt>
 <trkpt lat="46.4137033" lon="14.5814367"> <ele>1430.23</ele> <time>2026-01-30T12:27:26Z</time> </trkpt>
 <trkpt lat="46.4138117" lon="14.5812217"> <ele>1420.89</ele> <time>2026-01-30T12:28:11Z</time> </trkpt>
 <trkpt lat="46.4139467" lon="14.5810417"> <ele>1414.63</ele> <time>2026-01-30T12:28:41Z</time> </trkpt>
 <trkpt lat="46.4140817" lon="14.5808417"> <ele>1414.32</ele> <time>2026-01-30T12:29:04Z</time> </trkpt>
 <trkpt lat="46.4142000" lon="14.5806450"> <ele>1415.39</ele> <time>2026-01-30T12:29:25Z</time> </trkpt>
 <trkpt lat="46.4143167" lon="14.5804317"> <ele>1416.11</ele> <time>2026-01-30T12:29:45Z</time> </trkpt>
 <trkpt lat="46.4144133" lon="14.5801850"> <ele>1418.27</ele> <time>2026-01-30T12:30:05Z</time> </trkpt>
 <trkpt lat="46.4145283" lon="14.5799750"> <ele>1422.20</ele> <time>2026-01-30T12:30:28Z</time> </trkpt>
 <trkpt lat="46.4146500" lon="14.5797267"> <ele>1427.79</ele> <time>2026-01-30T12:31:54Z</time> </trkpt>
 <trkpt lat="46.4148033" lon="14.5795750"> <ele>1428.58</ele> <time>2026-01-30T12:32:11Z</time> </trkpt>
 <trkpt lat="46.4148633" lon="14.5793067"> <ele>1428.44</ele> <time>2026-01-30T12:32:27Z</time> </trkpt>
 <trkpt lat="46.4148700" lon="14.5790367"> <ele>1427.36</ele> <time>2026-01-30T12:32:48Z</time> </trkpt>
 <trkpt lat="46.4149817" lon="14.5788233"> <ele>1428.13</ele> <time>2026-01-30T12:33:03Z</time> </trkpt>
 <trkpt lat="46.4150667" lon="14.5785900"> <ele>1429.25</ele> <time>2026-01-30T12:33:15Z</time> </trkpt>
 <trkpt lat="46.4152017" lon="14.5783667"> <ele>1432.28</ele> <time>2026-01-30T12:34:11Z</time> </trkpt>
 <trkpt lat="46.4152883" lon="14.5781367"> <ele>1433.22</ele> <time>2026-01-30T12:36:28Z</time> </trkpt>
 <trkpt lat="46.4154783" lon="14.5781133"> <ele>1433.09</ele> <time>2026-01-30T12:36:56Z</time> </trkpt>
 <trkpt lat="46.4156633" lon="14.5781283"> <ele>1430.20</ele> <time>2026-01-30T12:37:21Z</time> </trkpt>
 <trkpt lat="46.4158383" lon="14.5782033"> <ele>1428.21</ele> <time>2026-01-30T12:37:37Z</time> </trkpt>
 <trkpt lat="46.4160083" lon="14.5783167"> <ele>1427.09</ele> <time>2026-01-30T12:37:59Z</time> </trkpt>
 <trkpt lat="46.4161667" lon="14.5781817"> <ele>1427.53</ele> <time>2026-01-30T12:38:27Z</time> </trkpt>
 <trkpt lat="46.4163067" lon="14.5780067"> <ele>1427.50</ele> <time>2026-01-30T12:38:45Z</time> </trkpt>
 <trkpt lat="46.4164450" lon="14.5778283"> <ele>1428.65</ele> <time>2026-01-30T12:39:39Z</time> </trkpt>
 <trkpt lat="46.4166233" lon="14.5777583"> <ele>1429.30</ele> <time>2026-01-30T12:40:00Z</time> </trkpt>
 <trkpt lat="46.4168083" lon="14.5777800"> <ele>1427.99</ele> <time>2026-01-30T12:40:41Z</time> </trkpt>
 <trkpt lat="46.4168183" lon="14.5774867"> <ele>1427.49</ele> <time>2026-01-30T12:41:36Z</time> </trkpt>
 <trkpt lat="46.4168333" lon="14.5772233"> <ele>1429.08</ele> <time>2026-01-30T12:41:54Z</time> </trkpt>
 <trkpt lat="46.4169033" lon="14.5769767"> <ele>1426.03</ele> <time>2026-01-30T12:42:21Z</time> </trkpt>
 <trkpt lat="46.4169433" lon="14.5767067"> <ele>1420.14</ele> <time>2026-01-30T12:42:56Z</time> </trkpt>
 <trkpt lat="46.4170517" lon="14.5764950"> <ele>1418.92</ele> <time>2026-01-30T12:43:26Z</time> </trkpt>
 <trkpt lat="46.4172100" lon="14.5763700"> <ele>1412.56</ele> <time>2026-01-30T12:44:42Z</time> </trkpt>
 <trkpt lat="46.4170850" lon="14.5761800"> <ele>1408.12</ele> <time>2026-01-30T12:45:37Z</time> </trkpt>
 <trkpt lat="46.4169200" lon="14.5763083"> <ele>1404.44</ele> <time>2026-01-30T12:46:08Z</time> </trkpt>
 <trkpt lat="46.4167917" lon="14.5765100"> <ele>1391.29</ele> <time>2026-01-30T12:47:37Z</time> </trkpt>
 <trkpt lat="46.4166617" lon="14.5766950"> <ele>1389.83</ele> <time>2026-01-30T12:47:54Z</time> </trkpt>
 <trkpt lat="46.4165083" lon="14.5768367"> <ele>1385.08</ele> <time>2026-01-30T12:48:32Z</time> </trkpt>
 <trkpt lat="46.4163450" lon="14.5769517"> <ele>1379.27</ele> <time>2026-01-30T12:48:59Z</time> </trkpt>
 <trkpt lat="46.4161817" lon="14.5770683"> <ele>1379.22</ele> <time>2026-01-30T12:49:42Z</time> </trkpt>
 <trkpt lat="46.4160367" lon="14.5772267"> <ele>1376.56</ele> <time>2026-01-30T12:49:59Z</time> </trkpt>
 <trkpt lat="46.4158550" lon="14.5771617"> <ele>1376.94</ele> <time>2026-01-30T12:50:19Z</time> </trkpt>
 <trkpt lat="46.4157133" lon="14.5769683"> <ele>1380.76</ele> <time>2026-01-30T12:50:38Z</time> </trkpt>
 <trkpt lat="46.4155667" lon="14.5768017"> <ele>1391.81</ele> <time>2026-01-30T12:51:14Z</time> </trkpt>
 <trkpt lat="46.4153867" lon="14.5767850"> <ele>1390.53</ele> <time>2026-01-30T12:51:36Z</time> </trkpt>
 <trkpt lat="46.4152283" lon="14.5769150"> <ele>1383.91</ele> <time>2026-01-30T12:56:36Z</time> </trkpt>
 <trkpt lat="46.4150783" lon="14.5767683"> <ele>1380.47</ele> <time>2026-01-30T12:58:03Z</time> </trkpt>
 <trkpt lat="46.4149033" lon="14.5766867"> <ele>1378.50</ele> <time>2026-01-30T12:58:27Z</time> </trkpt>
 <trkpt lat="46.4147400" lon="14.5765533"> <ele>1374.81</ele> <time>2026-01-30T12:58:43Z</time> </trkpt>
 <trkpt lat="46.4145600" lon="14.5765350"> <ele>1370.16</ele> <time>2026-01-30T12:59:19Z</time> </trkpt>
 <trkpt lat="46.4143750" lon="14.5765983"> <ele>1369.16</ele> <time>2026-01-30T12:59:40Z</time> </trkpt>
 <trkpt lat="46.4141967" lon="14.5766350"> <ele>1370.46</ele> <time>2026-01-30T13:00:07Z</time> </trkpt>
 <trkpt lat="46.4143383" lon="14.5764683"> <ele>1376.10</ele> <time>2026-01-30T13:01:20Z</time> </trkpt>
 <trkpt lat="46.4144783" lon="14.5762833"> <ele>1378.09</ele> <time>2026-01-30T13:01:48Z</time> </trkpt>
 <trkpt lat="46.4146617" lon="14.5762250"> <ele>1376.48</ele> <time>2026-01-30T13:02:19Z</time> </trkpt>
 <trkpt lat="46.4148500" lon="14.5762867"> <ele>1375.32</ele> <time>2026-01-30T13:02:38Z</time> </trkpt>
 <trkpt lat="46.4150350" lon="14.5762700"> <ele>1373.16</ele> <time>2026-01-30T13:03:18Z</time> </trkpt>
 <trkpt lat="46.4151883" lon="14.5761300"> <ele>1371.30</ele> <time>2026-01-30T13:03:45Z</time> </trkpt>
 <trkpt lat="46.4153917" lon="14.5761350"> <ele>1368.95</ele> <time>2026-01-30T13:04:21Z</time> </trkpt>
 <trkpt lat="46.4155317" lon="14.5759683"> <ele>1369.98</ele> <time>2026-01-30T13:04:39Z</time> </trkpt>
 <trkpt lat="46.4156900" lon="14.5758283"> <ele>1370.19</ele> <time>2026-01-30T13:05:04Z</time> </trkpt>
 <trkpt lat="46.4158250" lon="14.5756267"> <ele>1367.31</ele> <time>2026-01-30T13:05:56Z</time> </trkpt>
 <trkpt lat="46.4159233" lon="14.5753933"> <ele>1365.24</ele> <time>2026-01-30T13:06:30Z</time> </trkpt>
 <trkpt lat="46.4160350" lon="14.5751833"> <ele>1361.28</ele> <time>2026-01-30T13:07:45Z</time> </trkpt>
 <trkpt lat="46.4161700" lon="14.5749967"> <ele>1358.23</ele> <time>2026-01-30T13:08:07Z</time> </trkpt>
 <trkpt lat="46.4162417" lon="14.5747467"> <ele>1356.40</ele> <time>2026-01-30T13:08:56Z</time> </trkpt>
 <trkpt lat="46.4163233" lon="14.5745000"> <ele>1353.98</ele> <time>2026-01-30T13:09:17Z</time> </trkpt>
 <trkpt lat="46.4163850" lon="14.5742500"> <ele>1344.96</ele> <time>2026-01-30T13:12:04Z</time> </trkpt>
 <trkpt lat="46.4164500" lon="14.5740017"> <ele>1340.03</ele> <time>2026-01-30T13:12:25Z</time> </trkpt>
 <trkpt lat="46.4166117" lon="14.5738650"> <ele>1334.00</ele> <time>2026-01-30T13:12:48Z</time> </trkpt>
 <trkpt lat="46.4167817" lon="14.5737767"> <ele>1336.54</ele> <time>2026-01-30T13:13:14Z</time> </trkpt>
 <trkpt lat="46.4169633" lon="14.5737750"> <ele>1336.76</ele> <time>2026-01-30T13:13:35Z</time> </trkpt>
 <trkpt lat="46.4171467" lon="14.5738083"> <ele>1334.36</ele> <time>2026-01-30T13:14:17Z</time> </trkpt>
 </trkseg>
 </trk>
 </gpx> 